Winston-Salem, NC (27106)

18:57 EST le 23 novembre 2014 (GMT -0500)
Sunny Dell Lakes | Change Station
CLOSE
Current Station
Stations météorologiques personnelles
Location: Winston-Salem, NC
Altitude: 774 ft
Stations météo à proximité

Alt. 774 ft 36.14 °N, 80.33 °W | Updated 11 seconds ago

Pluie
Pluie
46.3 ° F
Paraît 46 ° F
N
0.0
Vent Variable Vent de NNE
Gusts 0.0 mph

Aujourd'hui
Haut(e) -- | Bas -- ° F
--% Risque de précip.
Hier
Haut(e) -- | Bas -- ° F
Precip. -- pouce
7:06 AM 5:09 PM
Lune montante, 3% visible
Pression 29.88 pouce
Visibilité 3.0 Miles terrestres
Nuages Couvert 300 ft
Refroidissement éolien 46 ° F
Point de rosée 45 ° F
Humidité 95%
Précipitations 0.23 pouce
Profondeur de la couche neigeuse Non disponible.
UV 0.0 sur 12
Pollen .30 sur 12
Qualité de l'air Non disponible.
Flu Activity Non disponible.
SPECI KINT 232349Z 03006KT 3SM -RA BR OVC003 09/08 A2988 RMK AO2 P0008

More Conditions Fewer Conditions

Pression 29.88 pouce
Visibilité 3.0 Miles terrestres
Nuages Couvert 300 ft
Refroidissement éolien 46 ° F
Point de rosée 45 ° F
Humidité 95%
Précipitations 0.23 pouce
Profondeur de la couche neigeuse Non disponible.
UV 0.0 sur 12
Pollen .30 sur 12
Qualité de l'air Non disponible.
Flu Activity Non disponible.
SPECI KINT 232349Z 03006KT 3SM -RA BR OVC003 09/08 A2988 RMK AO2 P0008

More Conditions Fewer Conditions

10-Day Weather Forecast

Almanac

Astronomie

Nov. 23, 2014 Lever Coucher
Temps réel
Crépuscule civil
Crépuscule nautique
Crépuscule astronomique
Lune
Durée de lumière visible
Longueur du jour
Tomorrow will be .
, % of the Moon is Illuminated

Extrêmes aujourd'hui

State Highs State Lows

Community

WunderPhotos

Upload Photos

1,773,211 Photos téléchargées !

WunderBlogs® & News

Nearby

Qualité de l'air

  Qualité de l'air Indice de la qualité de l'air Polluant
Not available.

Épaisseur de neige

Station Depth Altitude

Activité sismique

Ville Distance Mag. Time & Date
Minimum magnitude displayed is 2.5.

Températures des eaux côtières

Lieu Température

Stations météo à proximité